Time;durP1;ratioP1;P1;durP2;ratioP2;P2;SDS_P1;SDS_P2;PMS_P1;PMS_P2;Temp;Humidity;BMP_temperature;BMP_pressure;BME280_temperature;BME280_humidity;BME280_pressure;Samples;Min_cycle;Max_cycle;Signal;HPM_P1;HPM_P2
2021/12/16 21:14:25;;;;;;;8.50;4.12;;;;;;;6.79;77.52;100831.19;5317181;26;883729;-91
2021/12/16 21:16:56;;;;;;;6.62;4.53;;;;;;;7.02;76.62;100833.34;5359377;26;33167;-91
2021/12/16 21:19:24;;;;;;;6.00;3.78;;;;;;;6.84;77.20;100823.53;5358881;26;33840;-93
2021/12/16 21:21:56;;;;;;;9.00;4.53;;;;;;;6.97;76.92;100827.22;5364631;26;33332;-88
2021/12/16 21:24:31;;;;;;;8.38;4.62;;;;;;;7.28;75.74;100825.22;5370314;26;34025;-93
2021/12/16 21:27:00;;;;;;;6.90;4.25;;;;;;;7.31;75.05;100827.88;5362386;26;33548;-90
2021/12/16 21:29:32;;;;;;;6.62;3.75;;;;;;;7.50;74.54;100837.69;5363372;26;34642;-91
2021/12/16 21:32:03;;;;;;;6.15;4.03;;;;;;;7.27;75.46;100839.81;5365935;26;33710;-92
2021/12/16 21:34:39;;;;;;;6.22;4.22;;;;;;;7.28;75.06;100849.31;5367525;26;33901;-89
2021/12/16 21:37:09;;;;;;;6.07;4.22;;;;;;;7.47;74.52;100848.81;5349781;26;33294;-93
2021/12/16 21:39:41;;;;;;;8.35;4.70;;;;;;;6.98;76.27;100847.00;5342456;26;34433;-90
2021/12/16 21:42:35;;;;;;;5.78;3.83;;;;;;;7.08;75.75;100837.75;5361188;26;34512;-91
2021/12/16 21:45:12;;;;;;;8.02;4.50;;;;;;;7.12;75.72;100839.53;5364830;26;34822;-92
2021/12/16 21:47:42;;;;;;;6.10;4.07;;;;;;;7.05;75.87;100831.69;5362096;26;33230;-92
2021/12/16 21:50:14;;;;;;;6.35;4.03;;;;;;;7.12;75.72;100835.25;5359559;26;33992;-92
2021/12/16 21:52:43;;;;;;;11.20;5.72;;;;;;;7.27;74.95;100839.81;5365212;26;34124;-92
2021/12/16 21:55:15;;;;;;;7.50;4.43;;;;;;;7.22;75.13;100838.88;5360567;26;34719;-93
2021/12/16 21:57:49;;;;;;;5.25;3.50;;;;;;;7.37;74.56;100840.87;5361648;26;34225;-92
2021/12/16 22:00:24;;;;;;;7.07;4.03;;;;;;;7.35;74.40;100847.75;5365044;26;34539;-91
2021/12/16 22:02:53;;;;;;;5.20;3.50;;;;;;;7.38;74.31;100837.47;5364936;26;34329;-90
2021/12/16 22:05:23;;;;;;;7.62;4.10;;;;;;;7.13;75.41;100839.59;5347658;26;32484;-90
2021/12/16 22:07:52;;;;;;;6.30;3.33;;;;;;;7.06;75.76;100837.72;5369285;26;34035;-91
2021/12/16 22:10:21;;;;;;;7.25;4.72;;;;;;;7.04;75.81;100836.81;5364876;26;34297;-94
2021/12/16 22:12:50;;;;;;;7.47;4.78;;;;;;;7.23;75.13;100838.91;5363461;26;33578;-94
2021/12/16 22:15:26;;;;;;;6.85;4.30;;;;;;;6.91;76.22;100845.12;5363597;26;33808;-90
2021/12/16 22:17:56;;;;;;;8.95;4.30;;;;;;;7.09;75.54;100847.22;5362928;26;34284;-90
2021/12/16 22:20:27;;;;;;;6.05;3.85;;;;;;;7.10;75.52;100846.38;5348274;26;35101;-94
2021/12/16 22:22:58;;;;;;;6.47;3.95;;;;;;;7.32;74.63;100833.06;5341221;26;32128;-91
2021/12/16 22:25:28;;;;;;;6.18;4.05;;;;;;;7.00;75.61;100835.00;5362213;26;34330;-94
2021/12/16 22:27:57;;;;;;;5.40;3.50;;;;;;;7.04;75.92;100829.94;5363824;26;33381;-94
2021/12/16 22:30:27;;;;;;;4.55;3.22;;;;;;;7.01;76.12;100837.63;5362522;26;34292;-92
2021/12/16 22:32:56;;;;;;;7.12;5.03;;;;;;;6.91;76.33;100827.09;5365042;26;33166;-91
2021/12/16 22:35:28;;;;;;;7.60;3.90;;;;;;;6.96;76.22;100821.19;5365173;26;34864;-96
2021/12/16 22:37:57;;;;;;;;;;;;;;;7.03;76.11;100817.91;5364207;26;33352;-92
2021/12/16 22:40:29;;;;;;;7.28;3.42;;;;;;;7.11;75.75;100817.19;5361282;26;34465;-93
2021/12/16 22:42:58;;;;;;;8.32;4.72;;;;;;;6.96;76.25;100828.03;5360328;26;34519;-92
2021/12/16 22:45:29;;;;;;;6.47;3.60;;;;;;;6.90;76.16;100827.94;5361180;26;34224;-91
2021/12/16 22:47:58;;;;;;;6.47;3.83;;;;;;;6.88;76.33;100819.28;5372245;26;33092;-93
2021/12/16 22:50:31;;;;;;;6.50;3.22;;;;;;;7.23;75.17;100809.66;5362828;26;34188;-92
2021/12/16 22:53:00;;;;;;;5.70;3.58;;;;;;;7.18;74.84;100788.94;5363073;26;34543;-93
2021/12/16 22:55:29;;;;;;;5.18;3.83;;;;;;;6.84;76.31;100803.75;5361649;26;33811;-91
2021/12/16 22:57:58;;;;;;;6.85;4.37;;;;;;;6.65;77.09;100803.37;5361416;26;33397;-90
2021/12/16 23:00:30;;;;;;;6.53;4.18;;;;;;;6.85;76.30;100804.62;5367247;26;33395;-94
2021/12/16 23:03:01;;;;;;;6.45;4.03;;;;;;;6.65;76.97;100814.53;5366307;26;33385;-91
2021/12/16 23:05:30;;;;;;;5.57;3.35;;;;;;;6.60;76.96;100824.75;5362310;26;34202;-91
2021/12/16 23:07:58;;;;;;;7.12;4.15;;;;;;;6.62;76.86;100837.69;5343123;26;33122;-91
2021/12/16 23:10:27;;;;;;;5.43;3.47;;;;;;;6.63;76.93;100844.59;5361571;26;33847;-93
2021/12/16 23:12:56;;;;;;;5.87;3.67;;;;;;;6.78;76.02;100844.91;5360058;26;33883;-92
2021/12/16 23:16:14;;;;;;;5.95;3.45;;;;;;;7.10;74.52;100844.66;5365722;26;35074;-89
2021/12/16 23:24:07;;;;;;;5.72;3.50;;;;;;;6.74;75.72;100845.69;5359486;26;34715;-93
2021/12/16 23:26:38;;;;;;;7.43;3.37;;;;;;;7.11;74.06;100849.00;5360827;26;34210;-95
2021/12/16 23:29:07;;;;;;;;;;;;;;;6.86;74.89;100849.34;5368508;26;34184;-92
2021/12/16 23:31:37;;;;;;;4.03;3.08;;;;;;;7.06;74.25;100842.88;5346666;26;32995;-93
2021/12/16 23:34:07;;;;;;;5.30;3.42;;;;;;;7.13;73.48;100837.00;5366950;26;34036;-92
2021/12/16 23:36:37;;;;;;;7.00;4.10;;;;;;;7.32;73.01;100848.56;5365345;26;33823;-92
2021/12/16 23:39:09;;;;;;;4.90;2.80;;;;;;;6.91;74.42;100842.56;5362454;26;34148;-94
2021/12/16 23:47:35;;;;;;;4.18;2.87;;;;;;;7.17;73.09;100828.47;5368516;26;35314;-91
2021/12/16 23:53:18;;;;;;;6.05;3.85;;;;;;;7.25;72.97;100819.16;5369328;26;33711;-91
2021/12/16 23:55:50;;;;;;;5.82;3.12;;;;;;;7.42;72.05;100803.13;5373847;26;34214;-91
2021/12/16 23:58:21;;;;;;;5.78;3.42;;;;;;;7.76;70.78;100796.81;5368888;26;34560;-93
